Lindon, Colorado
Current Conditions -  °F | °C
As of 5:53 AM on Tuesday 21 Oct 2014 (Local Time) from KAKO Reporting Station
Clear Clear  
Wind Chill: 50°   Ceiling: Unl
Heat Index: 50°   Visibility: 10mi
Dew Point: 47°   Wind: 10mph
Humidity: 89%   Direction: 190°S
Pressure: 30.02"   Gusts: NA
Location:  39.74°N, 103.41°W
Report Text: KAKO 211153Z AUTO 19009KT 10SM CLR 10/08 A3002 RMK AO2 SLP129 T01000083 10128 20100 56006
Loading
Personal Weather Stations






























Interactive Weather Map
Tropical Storm Tracking
New forecast layout! Learn more

10-Day Weather Forecast

Advertisements
Track Severe Weather on mobile